sensor_id;sensor_type;location;lat;lon;timestamp;pressure;altitude;pressure_sealevel;temperature;humidity
57799;BME280;43626;53.866;30.298;2023-12-14T00:01:43;1019.9;;;1.8;74.7
57799;BME280;43626;53.866;30.298;2023-12-14T00:06:54;1019.9;;;1.7;74.7
57799;BME280;43626;53.866;30.298;2023-12-14T00:12:12;1020;;;1.7;74.6
57799;BME280;43626;53.866;30.298;2023-12-14T00:16:51;1020;;;1.6;74.8
57799;BME280;43626;53.866;30.298;2023-12-14T00:21:37;1020;;;1.7;74.6
57799;BME280;43626;53.866;30.298;2023-12-14T00:26:26;1020;;;1.8;74.4
57799;BME280;43626;53.866;30.298;2023-12-14T00:32:06;1019.9;;;1.9;74.3
57799;BME280;43626;53.866;30.298;2023-12-14T00:37:15;1019.9;;;1.9;74
57799;BME280;43626;53.866;30.298;2023-12-14T00:41:26;1019.8;;;1.9;73.9
57799;BME280;43626;53.866;30.298;2023-12-14T00:47:03;1019.8;;;1.9;73.8
57799;BME280;43626;53.866;30.298;2023-12-14T00:52:15;1019.8;;;1.9;73.7
57799;BME280;43626;53.866;30.298;2023-12-14T00:57:04;1019.8;;;1.9;73.6
57799;BME280;43626;53.866;30.298;2023-12-14T01:02:15;1019.8;;;1.9;73.5
57799;BME280;43626;53.866;30.298;2023-12-14T01:06:26;1019.8;;;2;73.3
57799;BME280;43626;53.866;30.298;2023-12-14T01:11:30;1019.7;;;2;73
57799;BME280;43626;53.866;30.298;2023-12-14T01:17:15;1019.7;;;2.1;72.7
57799;BME280;43626;53.866;30.298;2023-12-14T01:21:48;1019.6;;;2.1;72.4
57799;BME280;43626;53.866;30.298;2023-12-14T01:27:15;1019.7;;;2;72.5
57799;BME280;43626;53.866;30.298;2023-12-14T01:31:41;1019.6;;;2;72.8
57799;BME280;43626;53.866;30.298;2023-12-14T01:36:47;1019.6;;;2;72.8
57799;BME280;43626;53.866;30.298;2023-12-14T01:41:41;1019.6;;;2;72.8
57799;BME280;43626;53.866;30.298;2023-12-14T01:47:07;1019.6;;;2.1;72.8
57799;BME280;43626;53.866;30.298;2023-12-14T01:51:57;1019.6;;;2.1;72.4
57799;BME280;43626;53.866;30.298;2023-12-14T01:56:43;1019.6;;;2.1;72.3
57799;BME280;43626;53.866;30.298;2023-12-14T02:01:43;1019.6;;;2.1;72
57799;BME280;43626;53.866;30.298;2023-12-14T02:06:27;1019.5;;;2.1;71.9
57799;BME280;43626;53.866;30.298;2023-12-14T02:12:05;1019.5;;;2.2;71.9
57799;BME280;43626;53.866;30.298;2023-12-14T02:17:13;1019.5;;;2.3;71.7
57799;BME280;43626;53.866;30.298;2023-12-14T02:21:37;1019.4;;;2.3;71.5
57799;BME280;43626;53.866;30.298;2023-12-14T02:26:29;1019.4;;;2.3;71.6
57799;BME280;43626;53.866;30.298;2023-12-14T02:32:01;1019.4;;;2.3;71.6
57799;BME280;43626;53.866;30.298;2023-12-14T02:36:27;1019.4;;;2.3;71.6
57799;BME280;43626;53.866;30.298;2023-12-14T02:42:15;1019.5;;;2.2;71.5
57799;BME280;43626;53.866;30.298;2023-12-14T02:46:35;1019.5;;;2.1;71.6
57799;BME280;43626;53.866;30.298;2023-12-14T02:51:35;1019.5;;;2;71.9
57799;BME280;43626;53.866;30.298;2023-12-14T02:56:55;1019.5;;;2.1;72.1
57799;BME280;43626;53.866;30.298;2023-12-14T03:02:07;1019.5;;;2.2;71.6
57799;BME280;43626;53.866;30.298;2023-12-14T03:07:13;1019.5;;;2.1;71.4
57799;BME280;43626;53.866;30.298;2023-12-14T03:11:41;1019.6;;;2.1;71.6
57799;BME280;43626;53.866;30.298;2023-12-14T03:17:01;1019.6;;;2.1;71.5
57799;BME280;43626;53.866;30.298;2023-12-14T03:21:27;1019.7;;;2;71.8
57799;BME280;43626;53.866;30.298;2023-12-14T03:26:27;1019.7;;;1.9;72.1
57799;BME280;43626;53.866;30.298;2023-12-14T03:31:57;1019.7;;;1.9;72.1
57799;BME280;43626;53.866;30.298;2023-12-14T03:36:27;1019.7;;;1.9;72.2
57799;BME280;43626;53.866;30.298;2023-12-14T03:41:57;1019.6;;;1.8;72.2
57799;BME280;43626;53.866;30.298;2023-12-14T03:46:35;1019.6;;;1.7;72.5
57799;BME280;43626;53.866;30.298;2023-12-14T03:52:05;1019.5;;;1.6;72.5
57799;BME280;43626;53.866;30.298;2023-12-14T03:57:17;1019.6;;;1.4;72.6
57799;BME280;43626;53.866;30.298;2023-12-14T04:01:35;1019.6;;;1.2;73
57799;BME280;43626;53.866;30.298;2023-12-14T04:07:05;1019.5;;;1.2;73.3
57799;BME280;43626;53.866;30.298;2023-12-14T04:11:27;1019.5;;;1.3;73.2
57799;BME280;43626;53.866;30.298;2023-12-14T04:16:55;1019.6;;;1.2;72.7
57799;BME280;43626;53.866;30.298;2023-12-14T04:22:03;1019.5;;;1.2;72.7
57799;BME280;43626;53.866;30.298;2023-12-14T04:26:35;1019.5;;;1.1;72.5
57799;BME280;43626;53.866;30.298;2023-12-14T04:31:27;1019.5;;;1;72.5
57799;BME280;43626;53.866;30.298;2023-12-14T04:36:27;1019.6;;;0.9;72.4
57799;BME280;43626;53.866;30.298;2023-12-14T04:42:05;1019.5;;;0.7;72.5
57799;BME280;43626;53.866;30.298;2023-12-14T04:47:15;1019.6;;;0.6;72.8
57799;BME280;43626;53.866;30.298;2023-12-14T04:51:27;1019.6;;;0.5;72.5
57799;BME280;43626;53.866;30.298;2023-12-14T04:56:29;1019.5;;;0.4;72.8
57799;BME280;43626;53.866;30.298;2023-12-14T05:01:41;1019.5;;;0.3;72.8
57799;BME280;43626;53.866;30.298;2023-12-14T05:06:27;1019.5;;;0.2;72.5
57799;BME280;43626;53.866;30.298;2023-12-14T05:12:15;1019.5;;;0.2;72.6
57799;BME280;43626;53.866;30.298;2023-12-14T05:16:27;1019.6;;;0.1;72.8
57799;BME280;43626;53.866;30.298;2023-12-14T05:21:27;1019.5;;;0;72.9
57799;BME280;43626;53.866;30.298;2023-12-14T05:27:15;1019.6;;;0.1;72.7
57799;BME280;43626;53.866;30.298;2023-12-14T05:31:45;1019.6;;;0;72.6
57799;BME280;43626;53.866;30.298;2023-12-14T05:37:13;1019.7;;;-0.1;72
57799;BME280;43626;53.866;30.298;2023-12-14T05:42:11;1019.8;;;-0.2;71.9
57799;BME280;43626;53.866;30.298;2023-12-14T05:46:43;1019.8;;;-0.3;71
57799;BME280;43626;53.866;30.298;2023-12-14T05:52:01;1019.8;;;-0.5;71
57799;BME280;43626;53.866;30.298;2023-12-14T05:56:35;1019.8;;;-0.5;71
57799;BME280;43626;53.866;30.298;2023-12-14T06:01:59;1019.7;;;-0.6;71.1
57799;BME280;43626;53.866;30.298;2023-12-14T06:06:27;1019.7;;;-0.7;71.1
57799;BME280;43626;53.866;30.298;2023-12-14T06:12:07;1019.8;;;-0.8;70.7
57799;BME280;43626;53.866;30.298;2023-12-14T06:17:13;1019.7;;;-0.9;70.6
57799;BME280;43626;53.866;30.298;2023-12-14T06:21:45;1019.7;;;-0.9;70.5
57799;BME280;43626;53.866;30.298;2023-12-14T06:27:07;1019.8;;;-1.1;70.2
57799;BME280;43626;53.866;30.298;2023-12-14T06:31:53;1019.9;;;-1.2;69.7
57799;BME280;43626;53.866;30.298;2023-12-14T06:37:15;1019.9;;;-1.2;69.3
57799;BME280;43626;53.866;30.298;2023-12-14T06:41:39;1019.9;;;-1.1;68.8
57799;BME280;43626;53.866;30.298;2023-12-14T06:47:13;1020;;;-1.1;67.6
57799;BME280;43626;53.866;30.298;2023-12-14T06:52:01;1020;;;-1.1;67.5
57799;BME280;43626;53.866;30.298;2023-12-14T06:56:27;1020;;;-1.1;67.9
57799;BME280;43626;53.866;30.298;2023-12-14T07:01:27;1019.9;;;-1.1;67.4
57799;BME280;43626;53.866;30.298;2023-12-14T07:07:03;1019.9;;;-1.1;67.5
57799;BME280;43626;53.866;30.298;2023-12-14T07:11:45;1019.9;;;-1.1;67.3
57799;BME280;43626;53.866;30.298;2023-12-14T07:17:11;1020;;;-1.1;66.9
57799;BME280;43626;53.866;30.298;2023-12-14T07:22:13;1020;;;-1.1;66.1
57799;BME280;43626;53.866;30.298;2023-12-14T07:27:01;1019.9;;;-1.2;65.6
57799;BME280;43626;53.866;30.298;2023-12-14T07:32:03;1019.9;;;-1.1;65.3
57799;BME280;43626;53.866;30.298;2023-12-14T07:36:55;1020;;;-1.1;65.1
57799;BME280;43626;53.866;30.298;2023-12-14T07:41:30;1019.9;;;-1;64.3
57799;BME280;43626;53.866;30.298;2023-12-14T07:46:27;1019.9;;;-1.1;64.4
57799;BME280;43626;53.866;30.298;2023-12-14T07:51:57;1019.9;;;-1.2;64.5
57799;BME280;43626;53.866;30.298;2023-12-14T07:57:11;1019.9;;;-1.3;64.3
57799;BME280;43626;53.866;30.298;2023-12-14T08:01:27;1019.9;;;-1.3;64.4
57799;BME280;43626;53.866;30.298;2023-12-14T08:06:37;1019.9;;;-1.4;64.3
57799;BME280;43626;53.866;30.298;2023-12-14T08:12:13;1019.9;;;-1.4;64.5
57799;BME280;43626;53.866;30.298;2023-12-14T08:17:11;1019.9;;;-1.3;64.5
57799;BME280;43626;53.866;30.298;2023-12-14T08:21:55;1019.8;;;-1.3;63.3
57799;BME280;43626;53.866;30.298;2023-12-14T08:26:45;1019.8;;;-1.4;63.1
57799;BME280;43626;53.866;30.298;2023-12-14T08:31:29;1019.8;;;-1.5;63
57799;BME280;43626;53.866;30.298;2023-12-14T08:36:35;1019.7;;;-1.6;62.6
57799;BME280;43626;53.866;30.298;2023-12-14T08:41:45;1019.7;;;-1.8;62.8
57799;BME280;43626;53.866;30.298;2023-12-14T08:46:52;1019.7;;;-1.8;63.3
57799;BME280;43626;53.866;30.298;2023-12-14T08:51:55;1019.7;;;-1.8;63.5
57799;BME280;43626;53.866;30.298;2023-12-14T08:57:09;1019.7;;;-1.7;63.5
57799;BME280;43626;53.866;30.298;2023-12-14T09:02:11;1019.6;;;-1.6;63.2
57799;BME280;43626;53.866;30.298;2023-12-14T09:06:47;1019.6;;;-1.7;63
57799;BME280;43626;53.866;30.298;2023-12-14T09:11:51;1019.5;;;-1.8;62.9
57799;BME280;43626;53.866;30.298;2023-12-14T09:16:27;1019.4;;;-1.9;62.8
57799;BME280;43626;53.866;30.298;2023-12-14T09:21:51;1019.4;;;-2;62.9
57799;BME280;43626;53.866;30.298;2023-12-14T09:26:27;1019.3;;;-1.8;62.9
57799;BME280;43626;53.866;30.298;2023-12-14T09:32:03;1019.3;;;-1.8;62.4
57799;BME280;43626;53.866;30.298;2023-12-14T09:37:11;1019.4;;;-1.9;64.2
57799;BME280;43626;53.866;30.298;2023-12-14T09:41:43;1019.3;;;-1.9;63
57799;BME280;43626;53.866;30.298;2023-12-14T09:47:09;1019.2;;;-2;63.1
57799;BME280;43626;53.866;30.298;2023-12-14T09:51:51;1019.2;;;-2.2;63.2
57799;BME280;43626;53.866;30.298;2023-12-14T09:57:12;1019.1;;;-2.2;63.6
57799;BME280;43626;53.866;30.298;2023-12-14T10:02:13;1019.1;;;-2.2;63.4
57799;BME280;43626;53.866;30.298;2023-12-14T10:06:55;1019;;;-2.2;63.4
57799;BME280;43626;53.866;30.298;2023-12-14T10:12:04;1019;;;-2.3;63
57799;BME280;43626;53.866;30.298;2023-12-14T10:17:13;1019;;;-2.3;63.3
57799;BME280;43626;53.866;30.298;2023-12-14T10:21:27;1018.9;;;-2.2;63.1
57799;BME280;43626;53.866;30.298;2023-12-14T10:26:49;1018.8;;;-2;63.1
57799;BME280;43626;53.866;30.298;2023-12-14T10:31:27;1018.7;;;-1.9;62.1
57799;BME280;43626;53.866;30.298;2023-12-14T10:37:13;1018.7;;;-2;62.2
57799;BME280;43626;53.866;30.298;2023-12-14T10:41:29;1018.6;;;-2.2;62.6
57799;BME280;43626;53.866;30.298;2023-12-14T10:47:13;1018.5;;;-2.1;63.1
57799;BME280;43626;53.866;30.298;2023-12-14T10:52:13;1018.4;;;-2.1;63
57799;BME280;43626;53.866;30.298;2023-12-14T10:56:27;1018.4;;;-2.2;63
57799;BME280;43626;53.866;30.298;2023-12-14T11:01:35;1018.3;;;-2.2;63.2
57799;BME280;43626;53.866;30.298;2023-12-14T11:06:36;1018.2;;;-2.2;63.1
57799;BME280;43626;53.866;30.298;2023-12-14T11:11:27;1018.1;;;-2.2;62.8
57799;BME280;43626;53.866;30.298;2023-12-14T11:16:53;1018.1;;;-2.2;63
57799;BME280;43626;53.866;30.298;2023-12-14T11:21:27;1018.1;;;-2.1;62.6
57799;BME280;43626;53.866;30.298;2023-12-14T11:27:13;1017.9;;;-2;62
57799;BME280;43626;53.866;30.298;2023-12-14T11:31:41;1017.9;;;-2.1;62.5
57799;BME280;43626;53.866;30.298;2023-12-14T11:36:49;1017.9;;;-2.2;62.8
57799;BME280;43626;53.866;30.298;2023-12-14T11:42:13;1017.7;;;-2.1;62.8
57799;BME280;43626;53.866;30.298;2023-12-14T11:46:28;1017.7;;;-2.1;63
57799;BME280;43626;53.866;30.298;2023-12-14T11:51:27;1017.7;;;-2;63.1
57799;BME280;43626;53.866;30.298;2023-12-14T11:56:37;1017.7;;;-1.9;62.9
57799;BME280;43626;53.866;30.298;2023-12-14T12:02:02;1017.7;;;-1.9;62.8
57799;BME280;43626;53.866;30.298;2023-12-14T12:07:01;1017.7;;;-1.9;63
57799;BME280;43626;53.866;30.298;2023-12-14T12:11:33;1017.6;;;-1.7;62.9
57799;BME280;43626;53.866;30.298;2023-12-14T12:17:11;1017.7;;;-1.7;61.8
57799;BME280;43626;53.866;30.298;2023-12-14T12:21:51;1017.7;;;-1.7;62.3
57799;BME280;43626;53.866;30.298;2023-12-14T12:27:13;1017.7;;;-1.6;62.4
57799;BME280;43626;53.866;30.298;2023-12-14T12:32:09;1017.8;;;-1.5;61.7
57799;BME280;43626;53.866;30.298;2023-12-14T12:36:33;1017.8;;;-1.7;62.1
57799;BME280;43626;53.866;30.298;2023-12-14T12:41:55;1017.8;;;-1.8;62.3
57799;BME280;43626;53.866;30.298;2023-12-14T12:46:27;1017.9;;;-1.8;62.3
57799;BME280;43626;53.866;30.298;2023-12-14T12:51:55;1017.9;;;-2;62
57799;BME280;43626;53.866;30.298;2023-12-14T12:56:51;1017.9;;;-2.2;62
57799;BME280;43626;53.866;30.298;2023-12-14T13:01:43;1017.9;;;-2.3;62.1
57799;BME280;43626;53.866;30.298;2023-12-14T13:07:11;1017.9;;;-2.4;62.1
57799;BME280;43626;53.866;30.298;2023-12-14T13:12:01;1017.8;;;-2.6;62
57799;BME280;43626;53.866;30.298;2023-12-14T13:17:13;1017.8;;;-2.7;62.8
57799;BME280;43626;53.866;30.298;2023-12-14T13:22:13;1017.8;;;-2.7;63
57799;BME280;43626;53.866;30.298;2023-12-14T13:26:55;1017.8;;;-2.7;63.2
57799;BME280;43626;53.866;30.298;2023-12-14T13:31:55;1017.8;;;-2.6;63.6
57799;BME280;43626;53.866;30.298;2023-12-14T13:37:13;1017.8;;;-2.5;63.2
57799;BME280;43626;53.866;30.298;2023-12-14T13:41:45;1017.7;;;-2.5;63.2
57799;BME280;43626;53.866;30.298;2023-12-14T13:46:53;1017.7;;;-2.5;63
57799;BME280;43626;53.866;30.298;2023-12-14T13:51:27;1017.6;;;-2.7;62.8
57799;BME280;43626;53.866;30.298;2023-12-14T13:57:03;1017.6;;;-2.8;63
57799;BME280;43626;53.866;30.298;2023-12-14T14:01:43;1017.6;;;-2.8;63.1
57799;BME280;43626;53.866;30.298;2023-12-14T14:06:47;1017.6;;;-2.8;62.9
57799;BME280;43626;53.866;30.298;2023-12-14T14:12:13;1017.6;;;-2.9;63.1
57799;BME280;43626;53.866;30.298;2023-12-14T14:17:05;1017.6;;;-2.9;63.2
57799;BME280;43626;53.866;30.298;2023-12-14T14:22:03;1017.6;;;-2.9;63
57799;BME280;43626;53.866;30.298;2023-12-14T14:26:37;1017.6;;;-2.9;62.9
57799;BME280;43626;53.866;30.298;2023-12-14T14:31:27;1017.7;;;-2.8;63
57799;BME280;43626;53.866;30.298;2023-12-14T14:37:05;1017.7;;;-2.8;62.9
57799;BME280;43626;53.866;30.298;2023-12-14T14:41:27;1017.7;;;-2.8;62.6
57799;BME280;43626;53.866;30.298;2023-12-14T14:46:27;1017.7;;;-3;62.5
57799;BME280;43626;53.866;30.298;2023-12-14T14:51:51;1017.7;;;-3.2;62.8
57799;BME280;43626;53.866;30.298;2023-12-14T14:56:37;1017.7;;;-3.1;63
57799;BME280;43626;53.866;30.298;2023-12-14T15:02:13;1017.7;;;-3.1;62.3
57799;BME280;43626;53.866;30.298;2023-12-14T15:07:05;1017.7;;;-3.3;62
57799;BME280;43626;53.866;30.298;2023-12-14T15:11:55;1017.7;;;-3.4;62.5
57799;BME280;43626;53.866;30.298;2023-12-14T15:16:27;1017.8;;;-3.3;63
57799;BME280;43626;53.866;30.298;2023-12-14T15:21:45;1017.8;;;-3.3;62.6
57799;BME280;43626;53.866;30.298;2023-12-14T15:27:13;1017.7;;;-3.2;62.7
57799;BME280;43626;53.866;30.298;2023-12-14T15:31:45;1017.7;;;-3.1;62.6
57799;BME280;43626;53.866;30.298;2023-12-14T15:36:27;1017.7;;;-3;62.5
57799;BME280;43626;53.866;30.298;2023-12-14T15:41:51;1017.7;;;-3;62.2
57799;BME280;43626;53.866;30.298;2023-12-14T15:47:05;1017.6;;;-3.2;62
57799;BME280;43626;53.866;30.298;2023-12-14T15:52:11;1017.5;;;-3.3;61.8
57799;BME280;43626;53.866;30.298;2023-12-14T15:57:03;1017.5;;;-3.4;61.9
57799;BME280;43626;53.866;30.298;2023-12-14T16:01:35;1017.6;;;-3.5;62.2
57799;BME280;43626;53.866;30.298;2023-12-14T16:06:37;1017.5;;;-3.6;62.4
57799;BME280;43626;53.866;30.298;2023-12-14T16:12:11;1017.5;;;-3.5;62.4
57799;BME280;43626;53.866;30.298;2023-12-14T16:17:05;1017.6;;;-3.6;62.1
57799;BME280;43626;53.866;30.298;2023-12-14T16:21:43;1017.6;;;-3.6;62.4
57799;BME280;43626;53.866;30.298;2023-12-14T16:26:27;1017.6;;;-3.6;62.4
57799;BME280;43626;53.866;30.298;2023-12-14T16:31:40;1017.6;;;-3.7;62.3
57799;BME280;43626;53.866;30.298;2023-12-14T16:36:55;1017.6;;;-3.9;62.4
57799;BME280;43626;53.866;30.298;2023-12-14T16:42:13;1017.5;;;-3.9;62.6
57799;BME280;43626;53.866;30.298;2023-12-14T16:47:05;1017.5;;;-3.8;62.5
57799;BME280;43626;53.866;30.298;2023-12-14T16:51:27;1017.5;;;-3.7;62.5
57799;BME280;43626;53.866;30.298;2023-12-14T16:56:37;1017.6;;;-3.6;62.5
57799;BME280;43626;53.866;30.298;2023-12-14T17:01:45;1017.6;;;-3.4;61.5
57799;BME280;43626;53.866;30.298;2023-12-14T17:07:13;1017.6;;;-3.4;61.6
57799;BME280;43626;53.866;30.298;2023-12-14T17:11:45;1017.6;;;-3.4;61.4
57799;BME280;43626;53.866;30.298;2023-12-14T17:16:27;1017.5;;;-3.3;61.3
57799;BME280;43626;53.866;30.298;2023-12-14T17:21:51;1017.5;;;-3.5;61.2
57799;BME280;43626;53.866;30.298;2023-12-14T17:26:57;1017.5;;;-3.6;61.3
57799;BME280;43626;53.866;30.298;2023-12-14T17:32:13;1017.5;;;-3.7;61.2
57799;BME280;43626;53.866;30.298;2023-12-14T17:36:29;1017.4;;;-3.7;61.2
57799;BME280;43626;53.866;30.298;2023-12-14T17:42:03;1017.4;;;-3.7;60.9
57799;BME280;43626;53.866;30.298;2023-12-14T17:46:27;1017.4;;;-3.9;60.9
57799;BME280;43626;53.866;30.298;2023-12-14T17:51:45;1017.4;;;-4;61
57799;BME280;43626;53.866;30.298;2023-12-14T17:57:13;1017.4;;;-3.9;61.2
57799;BME280;43626;53.866;30.298;2023-12-14T18:01:42;1017.4;;;-3.9;60.9
57799;BME280;43626;53.866;30.298;2023-12-14T18:07:13;1017.4;;;-4;60.9
57799;BME280;43626;53.866;30.298;2023-12-14T18:11:47;1017.4;;;-4;61.1
57799;BME280;43626;53.866;30.298;2023-12-14T18:16:39;1017.5;;;-4;61
57799;BME280;43626;53.866;30.298;2023-12-14T18:22:13;1017.4;;;-3.9;60.8
57799;BME280;43626;53.866;30.298;2023-12-14T18:26:55;1017.4;;;-3.8;60.3
57799;BME280;43626;53.866;30.298;2023-12-14T18:31:27;1017.4;;;-3.7;60.2
57799;BME280;43626;53.866;30.298;2023-12-14T18:36:43;1017.4;;;-3.8;60
57799;BME280;43626;53.866;30.298;2023-12-14T18:41:45;1017.4;;;-3.9;60.3
57799;BME280;43626;53.866;30.298;2023-12-14T18:47:13;1017.4;;;-3.8;60.7
57799;BME280;43626;53.866;30.298;2023-12-14T18:52:05;1017.4;;;-3.7;60.5
57799;BME280;43626;53.866;30.298;2023-12-14T18:56:37;1017.5;;;-3.5;60.3
57799;BME280;43626;53.866;30.298;2023-12-14T19:01:53;1017.5;;;-3.5;60.2
57799;BME280;43626;53.866;30.298;2023-12-14T19:06:37;1017.5;;;-3.3;59.9
57799;BME280;43626;53.866;30.298;2023-12-14T19:12:11;1017.5;;;-3.3;59.1
57799;BME280;43626;53.866;30.298;2023-12-14T19:17:05;1017.6;;;-3.3;58.3
57799;BME280;43626;53.866;30.298;2023-12-14T19:21:27;1017.6;;;-3.4;58.3
57799;BME280;43626;53.866;30.298;2023-12-14T19:26:43;1017.6;;;-3.5;58.2
57799;BME280;43626;53.866;30.298;2023-12-14T19:31:27;1017.5;;;-3.6;58.5
57799;BME280;43626;53.866;30.298;2023-12-14T19:37:13;1017.6;;;-3.7;58.7
57799;BME280;43626;53.866;30.298;2023-12-14T19:41:27;1017.6;;;-3.8;58.8
57799;BME280;43626;53.866;30.298;2023-12-14T19:46:57;1017.5;;;-4;59
57799;BME280;43626;53.866;30.298;2023-12-14T19:51:53;1017.5;;;-4;59.2
57799;BME280;43626;53.866;30.298;2023-12-14T19:56:42;1017.5;;;-4;59.2
57799;BME280;43626;53.866;30.298;2023-12-14T20:02:11;1017.5;;;-4;59
57799;BME280;43626;53.866;30.298;2023-12-14T20:07:13;1017.5;;;-4.1;58.7
57799;BME280;43626;53.866;30.298;2023-12-14T20:11:35;1017.4;;;-4.1;59.2
57799;BME280;43626;53.866;30.298;2023-12-14T20:16:27;1017.4;;;-4.1;58.8
57799;BME280;43626;53.866;30.298;2023-12-14T20:21:27;1017.5;;;-4.1;59.3
57799;BME280;43626;53.866;30.298;2023-12-14T20:27:11;1017.6;;;-4;58.8
57799;BME280;43626;53.866;30.298;2023-12-14T20:32:05;1017.7;;;-4;58.8
57799;BME280;43626;53.866;30.298;2023-12-14T20:36:27;1017.8;;;-4;58.8
57799;BME280;43626;53.866;30.298;2023-12-14T20:41:53;1017.8;;;-3.9;58.6
57799;BME280;43626;53.866;30.298;2023-12-14T20:46:47;1017.8;;;-3.8;58.6
57799;BME280;43626;53.866;30.298;2023-12-14T20:52:11;1017.9;;;-3.8;58.3
57799;BME280;43626;53.866;30.298;2023-12-14T20:57:11;1017.8;;;-4;57.6
57799;BME280;43626;53.866;30.298;2023-12-14T21:01:28;1017.9;;;-4.2;57.9
57799;BME280;43626;53.866;30.298;2023-12-14T21:06:47;1017.9;;;-4.3;58.2
57799;BME280;43626;53.866;30.298;2023-12-14T21:12:03;1017.9;;;-4.3;58.4
57799;BME280;43626;53.866;30.298;2023-12-14T21:17:11;1017.9;;;-4.3;58.5
57799;BME280;43626;53.866;30.298;2023-12-14T21:21:27;1017.9;;;-4.4;58.7
57799;BME280;43626;53.866;30.298;2023-12-14T21:26:43;1017.9;;;-4.5;59.2
57799;BME280;43626;53.866;30.298;2023-12-14T21:31:29;1017.9;;;-4.5;59.5
57799;BME280;43626;53.866;30.298;2023-12-14T21:36:39;1017.9;;;-4.6;59.6
57799;BME280;43626;53.866;30.298;2023-12-14T21:42:13;1018;;;-4.6;59.6
57799;BME280;43626;53.866;30.298;2023-12-14T21:46:47;1018.1;;;-4.7;59.5
57799;BME280;43626;53.866;30.298;2023-12-14T21:51:33;1018.2;;;-4.8;59.8
57799;BME280;43626;53.866;30.298;2023-12-14T21:56:37;1018.2;;;-4.8;60.1
57799;BME280;43626;53.866;30.298;2023-12-14T22:02:05;1018.2;;;-4.9;60.2
57799;BME280;43626;53.866;30.298;2023-12-14T22:07:13;1018.3;;;-5;60.5
57799;BME280;43626;53.866;30.298;2023-12-14T22:11:27;1018.2;;;-5;60.3
57799;BME280;43626;53.866;30.298;2023-12-14T22:16:27;1018.3;;;-5.2;60.4
57799;BME280;43626;53.866;30.298;2023-12-14T22:21:47;1018.4;;;-5.2;60.5
57799;BME280;43626;53.866;30.298;2023-12-14T22:27:05;1018.4;;;-5.4;60.7
57799;BME280;43626;53.866;30.298;2023-12-14T22:32:13;1018.4;;;-5.5;60.8
57799;BME280;43626;53.866;30.298;2023-12-14T22:37:05;1018.4;;;-5.4;61
57799;BME280;43626;53.866;30.298;2023-12-14T22:41:27;1018.5;;;-5.4;61
57799;BME280;43626;53.866;30.298;2023-12-14T22:46:53;1018.5;;;-5.4;61
57799;BME280;43626;53.866;30.298;2023-12-14T22:51:47;1018.6;;;-5.4;60.9
57799;BME280;43626;53.866;30.298;2023-12-14T22:57:13;1018.6;;;-5.5;61.1
57799;BME280;43626;53.866;30.298;2023-12-14T23:01:43;1018.6;;;-5.4;61.3
57799;BME280;43626;53.866;30.298;2023-12-14T23:06:43;1018.6;;;-5.4;60.6
57799;BME280;43626;53.866;30.298;2023-12-14T23:11:45;1018.6;;;-5.5;60.5
57799;BME280;43626;53.866;30.298;2023-12-14T23:17:05;1018.7;;;-5.4;60.8
57799;BME280;43626;53.866;30.298;2023-12-14T23:22:13;1018.7;;;-5.3;61
57799;BME280;43626;53.866;30.298;2023-12-14T23:26:27;1018.8;;;-5.2;60.5
57799;BME280;43626;53.866;30.298;2023-12-14T23:32:03;1018.8;;;-5.2;60.5
57799;BME280;43626;53.866;30.298;2023-12-14T23:36:37;1018.9;;;-5.1;60.4
57799;BME280;43626;53.866;30.298;2023-12-14T23:41:27;1018.9;;;-5.1;60.4
57799;BME280;43626;53.866;30.298;2023-12-14T23:47:05;1018.9;;;-5.1;60.3
57799;BME280;43626;53.866;30.298;2023-12-14T23:52:13;1018.9;;;-5.1;60.2
57799;BME280;43626;53.866;30.298;2023-12-14T23:56:33;1018.9;;;-5.2;60.1
